Time;durP1;ratioP1;P1;durP2;ratioP2;P2;SDS_P1;SDS_P2;PMS_P1;PMS_P2;Temp;Humidity;BMP_temperature;BMP_pressure;BME280_temperature;BME280_humidity;BME280_pressure;Samples;Min_cycle;Max_cycle;Signal;HPM_P1;HPM_P2
2023/06/19 00:02:03;;;;;;;10.77;5.85;;;;;;;;;;5028131;28;20053;-74
2023/06/19 00:04:29;;;;;;;6.97;5.45;;;;;;;;;;5028951;28;20029;-74
2023/06/19 00:06:55;;;;;;;6.55;5.07;;;;;;;;;;5025613;28;20097;-74
2023/06/19 00:09:21;;;;;;;7.32;5.22;;;;;;;;;;5014165;28;20052;-75
2023/06/19 00:11:47;;;;;;;7.28;5.55;;;;;;;;;;5010304;28;20666;-75
2023/06/19 00:14:13;;;;;;;7.15;5.82;;;;;;;;;;5023914;28;20165;-74
2023/06/19 00:16:40;;;;;;;8.02;5.78;;;;;;;;;;5027699;28;20240;-74
2023/06/19 00:19:06;;;;;;;5.88;5.25;;;;;;;;;;5028949;28;20028;-74
2023/06/19 00:21:33;;;;;;;6.32;5.63;;;;;;;;;;5028839;28;20030;-74
2023/06/19 00:23:59;;;;;;;7.18;5.50;;;;;;;;;;5017579;28;20088;-74
2023/06/19 00:26:25;;;;;;;6.97;4.93;;;;;;;;;;5062491;28;20119;-74
2023/06/19 00:28:52;;;;;;;8.15;6.07;;;;;;;;;;5030093;28;20038;-74
2023/06/19 00:31:18;;;;;;;8.77;5.40;;;;;;;;;;5029244;28;20064;-74
2023/06/19 00:33:45;;;;;;;10.00;6.70;;;;;;;;;;5023382;28;20026;-75
2023/06/19 00:36:13;;;;;;;6.97;5.35;;;;;;;;;;5027937;28;20426;-75
2023/06/19 00:38:40;;;;;;;6.20;5.03;;;;;;;;;;5061691;28;20049;-74
2023/06/19 00:41:06;;;;;;;6.85;5.72;;;;;;;;;;5027930;28;20040;-73
2023/06/19 00:43:33;;;;;;;6.55;5.22;;;;;;;;;;5031459;28;20017;-75
2023/06/19 00:45:59;;;;;;;7.85;5.20;;;;;;;;;;5061671;28;20459;-75
2023/06/19 00:48:26;;;;;;;5.97;5.15;;;;;;;;;;5029742;28;20467;-74
2023/06/19 00:50:53;;;;;;;6.53;5.32;;;;;;;;;;5027859;28;20079;-74
2023/06/19 00:53:20;;;;;;;8.15;4.60;;;;;;;;;;5028485;28;20041;-74
2023/06/19 00:55:46;;;;;;;10.35;5.47;;;;;;;;;;5024807;28;20021;-74
2023/06/19 00:58:12;;;;;;;6.43;5.07;;;;;;;;;;5031291;28;20056;-75
2023/06/19 01:00:38;;;;;;;7.00;5.15;;;;;;;;;;5029282;28;20463;-75
2023/06/19 01:03:04;;;;;;;5.78;5.22;;;;;;;;;;5025769;28;20083;-75
2023/06/19 01:05:31;;;;;;;5.50;5.00;;;;;;;;;;5026910;28;20075;-73
2023/06/19 01:08:00;;;;;;;7.18;5.25;;;;;;;;;;5030697;28;20057;-74
2023/06/19 01:10:28;;;;;;;8.27;5.03;;;;;;;;;;5028693;28;20080;-74
2023/06/19 01:12:59;;;;;;;11.32;5.10;;;;;;;;;;5025489;28;20040;-74
2023/06/19 01:15:25;;;;;;;6.72;4.85;;;;;;;;;;5022958;28;20021;-74
2023/06/19 01:17:52;;;;;;;7.60;5.32;;;;;;;;;;5014556;28;20357;-74
2023/06/19 01:20:18;;;;;;;6.05;5.07;;;;;;;;;;5038750;28;20052;-74
2023/06/19 01:22:44;;;;;;;9.75;5.38;;;;;;;;;;5029094;28;20163;-74
2023/06/19 01:25:13;;;;;;;9.10;5.30;;;;;;;;;;5030407;28;20485;-74
2023/06/19 01:27:42;;;;;;;11.45;5.53;;;;;;;;;;5008385;28;20046;-74
2023/06/19 01:30:09;;;;;;;6.57;5.03;;;;;;;;;;5026637;28;20471;-74
2023/06/19 01:32:35;;;;;;;7.82;5.38;;;;;;;;;;5029156;28;20033;-74
2023/06/19 01:35:02;;;;;;;13.13;6.47;;;;;;;;;;5029581;28;20032;-74
2023/06/19 01:37:28;;;;;;;5.72;5.13;;;;;;;;;;5025150;28;20044;-74
2023/06/19 01:39:59;;;;;;;14.90;5.82;;;;;;;;;;5027482;28;20030;-74
2023/06/19 01:42:26;;;;;;;5.85;5.00;;;;;;;;;;5028905;28;20474;-74
2023/06/19 01:44:52;;;;;;;7.00;5.43;;;;;;;;;;5027063;28;20037;-74
2023/06/19 01:47:19;;;;;;;5.80;5.00;;;;;;;;;;5027548;28;20112;-74
2023/06/19 01:49:46;;;;;;;7.20;5.00;;;;;;;;;;5030437;28;20056;-76
2023/06/19 01:52:13;;;;;;;8.75;5.43;;;;;;;;;;5022872;28;20545;-75
2023/06/19 01:54:39;;;;;;;7.40;5.50;;;;;;;;;;5030653;28;20065;-74
2023/06/19 01:57:05;;;;;;;7.28;5.90;;;;;;;;;;5026891;28;20459;-74
2023/06/19 01:59:31;;;;;;;6.80;6.10;;;;;;;;;;5028020;28;20112;-76
2023/06/19 02:01:57;;;;;;;11.95;5.15;;;;;;;;;;5029660;28;20025;-74
2023/06/19 02:04:23;;;;;;;8.43;6.00;;;;;;;;;;5026344;28;20120;-75
2023/06/19 02:06:49;;;;;;;7.15;5.25;;;;;;;;;;5034582;28;20388;-75
2023/06/19 02:09:15;;;;;;;8.23;4.80;;;;;;;;;;5029718;28;20104;-75
2023/06/19 02:11:41;;;;;;;7.45;6.00;;;;;;;;;;5032579;28;20120;-74
2023/06/19 02:14:08;;;;;;;9.43;6.03;;;;;;;;;;5027874;28;20029;-75
2023/06/19 02:16:35;;;;;;;10.27;5.75;;;;;;;;;;5027647;28;20042;-74
2023/06/19 02:19:02;;;;;;;6.93;5.57;;;;;;;;;;5039076;28;20086;-74
2023/06/19 02:21:28;;;;;;;9.45;6.10;;;;;;;;;;5069745;28;20421;-75
2023/06/19 02:23:54;;;;;;;6.30;5.20;;;;;;;;;;5031982;28;20465;-76
2023/06/19 02:26:20;;;;;;;7.82;5.57;;;;;;;;;;5031903;28;20036;-75
2023/06/19 02:28:46;;;;;;;8.25;5.80;;;;;;;;;;5030098;28;20064;-75
2023/06/19 02:31:12;;;;;;;9.88;5.82;;;;;;;;;;5033003;28;20033;-75
2023/06/19 02:33:38;;;;;;;11.45;5.60;;;;;;;;;;5029768;28;20033;-74
2023/06/19 02:36:04;;;;;;;6.80;5.40;;;;;;;;;;5031697;28;20037;-75
2023/06/19 02:38:30;;;;;;;6.75;5.80;;;;;;;;;;5032525;28;20045;-75
2023/06/19 02:41:02;;;;;;;6.75;6.00;;;;;;;;;;5021875;28;20038;-76
2023/06/19 02:43:28;;;;;;;8.10;5.47;;;;;;;;;;5031594;28;20029;-76
2023/06/19 02:45:54;;;;;;;7.55;5.53;;;;;;;;;;5062156;28;20083;-76
2023/06/19 02:48:22;;;;;;;7.28;5.60;;;;;;;;;;5022468;28;20127;-75
2023/06/19 02:50:49;;;;;;;6.75;6.05;;;;;;;;;;5031940;28;20032;-75
2023/06/19 02:53:16;;;;;;;11.82;6.03;;;;;;;;;;5032934;28;20036;-75
2023/06/19 02:55:42;;;;;;;8.45;6.28;;;;;;;;;;5027110;28;20032;-74
2023/06/19 02:58:08;;;;;;;7.82;5.45;;;;;;;;;;5063090;28;20041;-75
2023/06/19 03:00:35;;;;;;;7.00;5.80;;;;;;;;;;5029620;28;20087;-75
2023/06/19 03:03:01;;;;;;;6.93;6.22;;;;;;;;;;5030287;28;20053;-74
2023/06/19 03:05:27;;;;;;;7.43;6.03;;;;;;;;;;5028243;28;20073;-76
2023/06/19 03:07:53;;;;;;;12.27;6.22;;;;;;;;;;5031856;28;20041;-76
2023/06/19 03:10:19;;;;;;;7.65;6.22;;;;;;;;;;5029545;28;20037;-78
2023/06/19 03:12:46;;;;;;;6.82;6.03;;;;;;;;;;5029886;28;20056;-75
2023/06/19 03:15:12;;;;;;;7.82;6.60;;;;;;;;;;5028318;28;20075;-74
2023/06/19 03:17:38;;;;;;;6.35;5.75;;;;;;;;;;5061332;28;20041;-76
2023/06/19 03:20:05;;;;;;;7.35;6.32;;;;;;;;;;5030692;28;20376;-74
2023/06/19 03:22:32;;;;;;;8.32;6.18;;;;;;;;;;5032195;28;20037;-76
2023/06/19 03:24:58;;;;;;;7.78;6.30;;;;;;;;;;5029004;28;20109;-74
2023/06/19 03:27:26;;;;;;;8.02;6.07;;;;;;;;;;5031868;28;20046;-74
2023/06/19 03:29:53;;;;;;;11.10;5.63;;;21.00;99.90;;;;;;5030449;28;20391;-76
2023/06/19 03:32:19;;;;;;;4.93;4.38;;;;;;;;;;5029858;28;20063;-76
2023/06/19 03:34:45;;;;;;;7.63;4.38;;;;;;;;;;5030777;28;20029;-80
2023/06/19 03:37:12;;;;;;;4.30;3.45;;;;;;;;;;5029096;28;20034;-77
2023/06/19 03:39:38;;;;;;;4.18;3.63;;;;;;;;;;5031231;28;20545;-75
2023/06/19 03:42:04;;;;;;;5.25;2.97;;;;;;;;;;5030600;28;20033;-79
2023/06/19 03:44:30;;;;;;;7.38;3.10;;;;;;;;;;5031842;28;20037;-77
2023/06/19 03:46:56;;;;;;;6.40;3.13;;;;;;;;;;5027802;28;20103;-75
2023/06/19 03:49:22;;;;;;;4.15;3.25;;;;;;;;;;5060745;28;20039;-79
2023/06/19 03:51:48;;;;;;;5.68;2.85;;;;;;;;;;5052655;28;20273;-74
2023/06/19 03:54:14;;;;;;;3.95;3.00;;;;;;;;;;5032478;28;20383;-80
2023/06/19 03:56:40;;;;;;;5.32;2.78;;;;;;;;;;5029437;28;20148;-75
2023/06/19 03:59:07;;;;;;;7.22;2.65;;;;;;;;;;5031642;28;20088;-77
2023/06/19 04:01:33;;;;;;;3.25;2.58;;;;;;;;;;5027136;28;20442;-78
2023/06/19 04:03:59;;;;;;;4.38;2.80;;;;;;;;;;5028926;28;20024;-76
2023/06/19 04:06:25;;;;;;;6.05;3.40;;;;;;;;;;5061728;28;20614;-78
2023/06/19 04:08:52;;;;;;;7.10;3.22;;;;;;;;;;5029133;28;20038;-77
2023/06/19 04:11:19;;;;;;;4.55;2.83;;;;;;;;;;5030216;28;20137;-77
2023/06/19 04:13:45;;;;;;;4.93;2.80;;;;;;;;;;5027564;28;20037;-74
2023/06/19 04:16:11;;;;;;;5.32;2.88;;;;;;;;;;5023354;28;20032;-75
2023/06/19 04:18:37;;;;;;;3.75;2.72;;;;;;;;;;5028194;28;20128;-77
2023/06/19 04:21:03;;;;;;;3.97;3.15;;;;;;;;;;5028421;28;20120;-80
2023/06/19 04:23:29;;;;;;;4.22;2.92;;;;;;;;;;5025354;28;20092;-74
2023/06/19 04:25:55;;;;;;;4.60;3.00;;;;;;;;;;5027886;28;20107;-74
2023/06/19 04:28:21;;;;;;;3.78;2.40;;;;;;;;;;5018260;28;20433;-82
2023/06/19 04:30:47;;;;;;;3.53;2.53;;;;;;;;;;5022860;28;20026;-79
2023/06/19 04:33:13;;;;;;;2.72;2.45;;;;;;;;;;5018659;28;20034;-78
2023/06/19 04:35:42;;;;;;;4.40;3.17;;;;;;;;;;5021884;28;20037;-77
2023/06/19 04:38:08;;;;;;;4.85;2.78;;;;;;;;;;5028068;28;20040;-77
2023/06/19 04:40:34;;;;;;;20.73;16.38;;;;;;;;;;5029653;28;20020;-78
2023/06/19 04:43:02;;;;;;;8.43;3.60;;;;;;;;;;5029209;28;20486;-76
2023/06/19 04:45:28;;;;;;;5.07;2.95;;;;;;;;;;5027460;28;20049;-77
2023/06/19 04:47:54;;;;;;;2.90;2.63;;;;;;;;;;5032742;28;20048;-76
2023/06/19 04:50:21;;;;;;;4.43;2.75;;;;;;;;;;5027921;28;20025;-75
2023/06/19 04:52:50;;;;;;;6.05;3.20;;;;;;;;;;5024440;28;20113;-77
2023/06/19 04:55:16;;;;;;;5.65;3.30;;;;;;;;;;5019866;28;20514;-81
2023/06/19 04:57:42;;;;;;;5.97;2.83;;;;;;;;;;5028481;28;20156;-78
2023/06/19 05:00:10;;;;;;;3.78;3.05;;;;;;;;;;5025778;28;20427;-78
2023/06/19 05:02:36;;;;;;;3.13;2.72;;;;;;;;;;5026926;28;20079;-82
2023/06/19 05:05:02;;;;;;;8.52;3.63;;;;;;;;;;5019656;28;20057;-81
2023/06/19 05:07:28;;;;;;;6.72;4.82;;;;;;;;;;5025737;28;20036;-79
2023/06/19 05:09:55;;;;;;;49.42;31.48;;;;;;;;;;5025578;28;20041;-83
2023/06/19 05:12:21;;;;;;;9.05;4.68;;;;;;;;;;5027686;28;20029;-79
2023/06/19 05:14:47;;;;;;;3.75;3.25;;;;;;;;;;5028262;28;20190;-80
2023/06/19 05:17:13;;;;;;;5.38;3.30;;;;;;;;;;5029294;28;20511;-85
2023/06/19 05:19:39;;;;;;;5.15;3.88;;;;;;;;;;5025046;28;20034;-77
2023/06/19 05:22:06;;;;;;;8.38;3.92;;;;;;;;;;5028538;28;20030;-78
2023/06/19 05:24:32;;;;;;;7.80;3.67;;;;;;;;;;5031426;28;20418;-82
2023/06/19 05:26:58;;;;;;;9.00;4.20;;;;;;;;;;5026459;28;20025;-79
2023/06/19 05:29:24;;;;;;;8.63;4.45;;;;;;;;;;5057345;28;20044;-85
2023/06/19 05:31:50;;;;;;;7.53;4.32;;;;;;;;;;5023103;28;20035;-75
2023/06/19 05:34:17;;;;;;;5.93;4.40;;;;;;;;;;5028115;28;20029;-76
2023/06/19 05:36:46;;;;;;;11.68;5.13;;;;;;;;;;5025290;28;20033;-74
2023/06/19 05:39:12;;;;;;;11.77;5.80;;;;;;;;;;5028559;28;20034;-78
2023/06/19 05:41:38;;;;;;;22.17;16.98;;;;;;;;;;5022932;28;20382;-79
2023/06/19 05:44:04;;;;;;;15.30;9.23;;;;;;;;;;5034145;28;20099;-79
2023/06/19 05:46:30;;;;;;;13.23;9.68;;;;;;;;;;5030894;28;20064;-79
2023/06/19 05:48:56;;;;;;;14.05;9.15;;;;;;;;;;5037599;28;20041;-79
2023/06/19 05:51:22;;;;;;;14.52;9.52;;;;;;;;;;5024843;28;20091;-78
2023/06/19 05:53:52;;;;;;;67.82;40.58;;;;;;;;;;5032809;28;20033;-80
2023/06/19 05:56:18;;;;;;;15.23;12.93;;;;;;;;;;5057720;28;20486;-79
2023/06/19 05:58:44;;;;;;;18.27;11.13;;;;;;;;;;5032714;28;20383;-77
2023/06/19 06:01:12;;;;;;;11.68;10.18;;;;;;;;;;5028917;28;20035;-79
2023/06/19 06:03:38;;;;;;;11.30;9.73;;;;;;;;;;5024322;28;20030;-81
2023/06/19 06:06:05;;;;;;;12.05;10.85;;;;;;;;;;5027686;28;20021;-80
2023/06/19 06:08:31;;;;;;;14.77;10.50;;;;;;;;;;5026318;28;20045;-78
2023/06/19 06:10:57;;;;;;;11.27;10.15;;;;;;;;;;5031107;28;20049;-78
2023/06/19 06:13:23;;;;;;;12.45;10.27;;;;;;;;;;5065336;28;20021;-81
2023/06/19 06:15:50;;;;;;;13.18;10.60;;;;;;;;;;5033435;28;20044;-80
2023/06/19 06:18:16;;;;;;;16.42;11.57;;;;;;;;;;5030434;28;20086;-79
2023/06/19 06:20:42;;;;;;;14.55;11.80;;;;;;;;;;5027176;28;20065;-78
2023/06/19 06:23:08;;;;;;;18.75;13.27;;;;;;;;;;5027718;28;20068;-79
2023/06/19 06:25:35;;;;;;;16.42;13.90;;;;;;;;;;5031411;28;20034;-79
2023/06/19 06:28:01;;;;;;;20.48;14.63;;;;;;;;;;5026998;28;20407;-79
2023/06/19 06:30:28;;;;;;;22.75;16.05;;;;;;;;;;5024585;28;20037;-79
2023/06/19 06:32:54;;;;;;;19.60;16.40;;;;;;;;;;5029570;28;20033;-78
2023/06/19 06:35:20;;;;;;;24.73;18.83;;;;;;;;;;5032691;28;20033;-78
2023/06/19 06:37:46;;;;;;;27.40;19.70;;;;;;;;;;5028029;28;20067;-79
2023/06/19 06:40:12;;;;;;;28.25;21.10;;;;;;;;;;5027367;28;20030;-80
2023/06/19 06:42:39;;;;;;;29.45;21.23;;;;;;;;;;5028977;28;20112;-77
2023/06/19 06:45:06;;;;;;;26.63;20.75;;;;;;;;;;5027920;28;20038;-77
2023/06/19 06:47:33;;;;;;;29.00;21.70;;;;;;;;;;5030783;28;20116;-77
2023/06/19 06:49:59;;;;;;;26.25;20.13;;;;;;;;;;5033798;28;20246;-78
2023/06/19 06:52:25;;;;;;;24.67;18.70;;;;;;;;;;5028818;28;20033;-77
2023/06/19 06:54:51;;;;;;;26.17;19.02;;;;;;;;;;5064175;28;20453;-77
2023/06/19 06:57:17;;;;;;;31.40;20.40;;;;;;;;;;5026419;28;20052;-79
2023/06/19 06:59:43;;;;;;;23.75;17.77;;;;;;;;;;5023630;28;20387;-77
2023/06/19 07:02:09;;;;;;;25.73;18.27;;;;;;;;;;5030296;28;20033;-76
2023/06/19 07:04:35;;;;;;;23.80;17.58;;;;;;;;;;5028819;28;20116;-79
2023/06/19 07:07:03;;;;;;;25.67;17.67;;;;;;;;;;5021641;28;20075;-83
2023/06/19 07:09:29;;;;;;;25.63;18.73;;;;;;;;;;5025748;28;20044;-76
2023/06/19 07:11:57;;;;;;;31.67;20.25;;;;;;;;;;5028927;28;20127;-77
2023/06/19 07:14:23;;;;;;;29.48;20.45;;;;;;;;;;5025143;28;20087;-81
2023/06/19 07:16:50;;;;;;;35.90;18.50;;;;;;;;;;5025717;28;20399;-78
2023/06/19 07:19:16;;;;;;;27.88;19.58;;;;;;;;;;5022114;28;20525;-80
2023/06/19 07:21:42;;;;;;;32.33;19.35;;;;;;;;;;5030396;28;20040;-81
2023/06/19 07:24:09;;;;;;;26.45;17.52;;;;;;;;;;5033186;28;20057;-82
2023/06/19 07:26:35;;;;;;;32.55;23.27;;;;;;;;;;5027552;28;20112;-79
2023/06/19 07:29:01;;;;;;;37.42;27.75;;;;;;;;;;5034025;28;20129;-80
2023/06/19 07:31:28;;;;;;;23.73;13.93;;;;;;;;;;5027988;28;20112;-78
2023/06/19 07:33:54;;;;;;;19.67;13.30;;;;;;;;;;5032669;28;20037;-78
2023/06/19 07:36:20;;;;;;;16.98;12.88;;;;;;;;;;5020858;28;20045;-77
2023/06/19 07:38:46;;;;;;;21.67;14.05;;;;;;;;;;5026564;28;20056;-77
2023/06/19 07:41:12;;;;;;;20.05;14.68;;;;;;;;;;5026988;28;20107;-75
2023/06/19 07:43:38;;;;;;;21.23;15.45;;;;;;;;;;5023837;28;20037;-76
2023/06/19 07:46:05;;;;;;;20.02;16.77;;;;;;;;;;5030219;28;20837;-76
2023/06/19 07:48:31;;;;;;;21.10;16.50;;;;;;;;;;5029729;28;20045;-77
2023/06/19 07:50:57;;;;;;;24.20;15.57;;;;;;;;;;5032849;28;20387;-77
2023/06/19 07:53:23;;;;;;;19.77;14.63;;;;;;;;;;5021335;28;20542;-77
2023/06/19 07:55:49;;;;;;;19.27;14.48;;;;;;;;;;5024890;28;20041;-82
2023/06/19 07:58:15;;;;;;;19.17;13.55;;;;;;;;;;5027224;28;20069;-78
2023/06/19 08:00:41;;;;;;;16.83;13.23;;;;;;;;;;5031530;28;20048;-78
2023/06/19 08:03:07;;;;;;;16.48;12.38;;;;;;;;;;5016278;28;20025;-77
2023/06/19 08:05:33;;;;;;;18.92;11.75;;;;;;;;;;5031146;28;20033;-78
2023/06/19 08:08:00;;;;;;;12.38;11.07;;;;;;;;;;5029953;28;20104;-78
2023/06/19 08:10:26;;;;;;;14.02;10.70;;;;;;;;;;5022195;28;20471;-78
2023/06/19 08:12:52;;;;;;;90.20;58.58;;;;;;;;;;5023761;28;20100;-77
2023/06/19 08:15:18;;;;;;;36.00;27.98;;;;;;;;;;5027372;28;20057;-78
2023/06/19 08:17:44;;;;;;;15.82;10.15;;;;;;;;;;5029631;28;20110;-76
2023/06/19 08:20:10;;;;;;;19.15;11.07;;;;;;;;;;5028510;28;20087;-74
2023/06/19 08:22:36;;;;;;;12.10;8.82;;;;;;;;;;5028028;28;20041;-77
2023/06/19 08:25:03;;;;;;;9.48;8.10;;;;;;;;;;5025786;28;20040;-77
2023/06/19 08:27:29;;;;;;;10.90;7.28;;;;;;;;;;5031421;28;20033;-78
2023/06/19 08:29:55;;;;;;;10.85;7.40;;;;;;;;;;5030038;28;20041;-78
2023/06/19 08:32:21;;;;;;;15.05;6.05;;;;;;;;;;5033685;28;20104;-78
2023/06/19 08:34:47;;;;;;;9.45;6.38;;;;;;;;;;5031808;28;20040;-78
2023/06/19 08:37:13;;;;;;;10.27;5.95;;;;;;;;;;5030757;28;20037;-78
2023/06/19 08:39:39;;;;;;;10.55;6.50;;;;;;;;;;5020017;28;20026;-76
2023/06/19 08:42:09;;;;;;;10.15;5.80;;;;;;;;;;5028069;28;20029;-77
2023/06/19 08:44:36;;;;;;;10.73;6.10;;;;;;;;;;5028286;28;20033;-78
2023/06/19 08:47:03;;;;;;;10.57;6.00;;;;;;;;;;5029459;28;20026;-77
2023/06/19 08:49:35;;;;;;;12.00;5.72;;;;;;;;;;5029750;28;20053;-78
2023/06/19 08:52:01;;;;;;;;;;;;;;;;;;5028506;28;20029;-77
2023/06/19 08:54:27;;;;;;;14.00;6.85;;;;;;;;;;5061420;28;20362;-78
2023/06/19 08:56:54;;;;;;;14.27;7.07;;;;;;;;;;5030420;28;20120;-77
2023/06/19 08:59:20;;;;;;;11.30;8.02;;;;;;;;;;5029309;28;20113;-77
2023/06/19 09:01:54;;;;;;;15.20;6.95;;;;;;;;;;5030692;28;20041;-79
2023/06/19 09:04:24;;;;;;;13.55;7.93;;;;;;;;;;5029251;28;20025;-79
2023/06/19 09:07:02;;;;;;;13.75;8.18;;;;;;;;;;5026498;28;20123;-77
2023/06/19 09:09:28;;;;;;;8.30;7.50;;;;;;;;;;5027294;28;20239;-78
2023/06/19 09:11:58;;;;;;;10.57;8.15;;;;;;;;;;5060136;28;20033;-76
2023/06/19 09:14:31;;;;;;;10.82;8.02;;;;;;;;;;5020909;28;20764;-77
2023/06/19 09:16:58;;;;;;;13.55;9.70;;;;;;;;;;5026097;28;20542;-76
2023/06/19 09:19:24;;;;;;;16.83;9.15;;;;;;;;;;5029831;28;20402;-76
2023/06/19 09:21:50;;;;;;;16.60;8.82;;;;;;;;;;5062940;28;20034;-76
2023/06/19 09:24:16;;;;;;;11.07;8.95;;;;;;;;;;5027532;28;20092;-77
2023/06/19 09:26:42;;;;;;;11.68;9.13;;;;;;;;;;5029106;28;20454;-77
2023/06/19 09:29:12;;;;;;;11.30;8.40;;;;;;;;;;5059754;28;20084;-76
2023/06/19 09:31:41;;;;;;;13.50;9.00;;;;;;;;;;5029069;28;20041;-76
2023/06/19 09:34:07;;;;;;;12.15;8.85;;;;;;;;;;5022435;28;20083;-76
2023/06/19 09:36:34;;;;;;;12.23;9.27;;;;;;;;;;5028590;28;20053;-77
2023/06/19 09:39:01;;;;;;;16.58;9.32;;;;;;;;;;5028853;28;20470;-76
2023/06/19 09:41:29;;;;;;;13.63;10.20;;;;;;;;;;5024706;28;20029;-76
2023/06/19 09:43:59;;;;;;;10.90;9.25;;;;;;;;;;5020668;28;20478;-76
2023/06/19 09:46:33;;;;;;;15.32;9.75;;;;;;;;;;5018924;28;20136;-76
2023/06/19 09:49:01;;;;;;;15.68;10.05;;;;;;;;;;5029793;28;20025;-76
2023/06/19 09:51:31;;;;;;;15.02;9.80;;;;;;;;;;5028674;28;20025;-77
2023/06/19 09:53:59;;;;;;;12.93;9.10;;;;;;;;;;5029057;28;20022;-76
2023/06/19 09:56:26;;;;;;;13.00;8.95;;;;;;;;;;5028630;28;20051;-76
2023/06/19 09:58:54;;;;;;;12.07;8.68;;;;;;;;;;5027856;28;20323;-76
2023/06/19 10:01:20;;;;;;;14.40;9.68;;;;;;;;;;5028461;28;20387;-77
2023/06/19 10:03:49;;;;;;;19.08;9.95;;;;;;;;;;5036754;28;20164;-74
2023/06/19 10:06:16;;;;;;;13.63;9.38;;;;;;;;;;5016426;28;20088;-73
2023/06/19 10:08:43;;;;;;;14.35;9.32;;;;;;;;;;5055834;28;20037;-74
2023/06/19 10:11:13;;;;;;;9.63;8.50;;;;;;;;;;5059642;28;20041;-75
2023/06/19 10:13:42;;;;;;;13.60;9.52;;;;;;;;;;5016406;28;20041;-75
2023/06/19 10:16:19;;;;;;;18.70;10.60;;;;;;;;;;5028513;28;20038;-74
2023/06/19 10:18:46;;;;;;;15.02;9.63;;;;;;;;;;5025441;28;20083;-74
2023/06/19 10:21:19;;;;;;;17.67;10.90;;;21.20;99.90;;;;;;5061939;28;20083;-75
2023/06/19 10:23:54;;;;;;;14.68;10.50;;;;;;;;;;5024747;28;20415;-73
2023/06/19 10:26:21;;;;;;;18.17;12.23;;;;;;;;;;5028209;28;20539;-74
2023/06/19 10:28:48;;;;;;;15.13;11.27;;;;;;;;;;5031594;28;20471;-75
2023/06/19 10:31:14;;;;;;;21.80;12.38;;;;;;;;;;5032538;28;20026;-75
2023/06/19 10:33:40;;;;;;;18.30;12.15;;;;;;;;;;5030171;28;20171;-74
2023/06/19 10:36:25;;;;;;;18.05;12.13;;;22.00;99.90;;;;;;5029280;28;20034;-75
2023/06/19 10:38:51;;;;;;;13.13;11.30;;;;;;;;;;5031762;28;20041;-75
2023/06/19 10:41:22;;;;;;;28.42;19.98;;;21.90;99.90;;;;;;5031237;28;20044;-79
2023/06/19 10:43:59;;;;;;;19.95;13.52;;;21.70;99.90;;;;;;5032709;28;20029;-81
2023/06/19 10:46:35;;;;;;;21.05;11.50;;;22.00;99.90;;;;;;5032079;28;20034;-76
2023/06/19 10:49:04;;;;;;;19.02;11.98;;;;;;;;;;5021489;28;20179;-75
2023/06/19 10:51:30;;;;;;;16.70;12.05;;;;;;;;;;5030328;28;20035;-76
2023/06/19 10:53:56;;;;;;;20.10;12.48;;;;;;;;;;5022680;28;20080;-77
2023/06/19 10:56:23;;;;;;;20.23;12.40;;;;;;;;;;5023842;28;20029;-75
2023/06/19 10:58:49;;;;;;;16.17;12.98;;;;;;;;;;5021982;28;20033;-78
2023/06/19 11:01:15;;;;;;;23.33;13.43;;;;;;;;;;5030937;28;20044;-77
2023/06/19 11:03:41;;;;;;;19.20;12.73;;;;;;;;;;5027823;28;20154;-76
2023/06/19 11:06:07;;;;;;;16.77;12.70;;;;;;;;;;5031967;28;20026;-77
2023/06/19 11:08:34;;;;;;;20.30;13.27;;;;;;;;;;5026866;28;20131;-76
2023/06/19 11:11:00;;;;;;;19.40;15.15;;;;;;;;;;5020253;28;20039;-76
2023/06/19 11:13:26;;;;;;;22.27;15.18;;;;;;;;;;5032533;28;20029;-77
2023/06/19 11:15:52;;;;;;;18.13;14.10;;;;;;;;;;5031910;28;20064;-74
2023/06/19 11:18:19;;;;;;;20.73;14.50;;;;;;;;;;5024371;28;20099;-74
2023/06/19 11:20:45;;;;;;;20.40;14.20;;;;;;;;;;5033018;28;20423;-75
2023/06/19 11:23:11;;;;;;;19.45;13.70;;;;;;;;;;5032913;28;20463;-76
2023/06/19 11:25:38;;;;;;;20.67;13.63;;;22.30;99.90;;;;;;5031649;28;20026;-75
2023/06/19 11:28:05;;;;;;;19.80;13.77;;;;;;;;;;5013347;28;20149;-75
2023/06/19 11:30:32;;;;;;;21.70;12.80;;;;;;;;;;5029934;28;20099;-75
2023/06/19 11:32:58;;;;;;;25.55;13.10;;;;;;;;;;5032884;28;20029;-75
2023/06/19 11:35:25;;;;;;;17.30;12.80;;;;;;;;;;5025430;28;20113;-75
2023/06/19 11:37:52;;;;;;;18.55;12.40;;;;;;;;;;5025959;28;20034;-75
2023/06/19 11:40:20;;;;;;;16.17;13.15;;;;;;;;;;5031516;28;20037;-75
2023/06/19 11:42:52;;;;;;;22.60;13.23;;;23.10;99.90;;;;;;5030566;28;20232;-76
2023/06/19 11:45:20;;;;;;;16.48;11.88;;;;;;;;;;5027273;28;20029;-75
2023/06/19 11:47:46;;;;;;;16.63;11.52;;;;;;;;;;5031774;28;20072;-75
2023/06/19 11:50:13;;;;;;;18.20;11.68;;;;;;;;;;5029929;28;20028;-76
2023/06/19 11:52:39;;;;;;;15.07;11.82;;;;;;;;;;5023213;28;20037;-75
2023/06/19 11:55:05;;;;;;;13.07;10.60;;;;;;;;;;5031237;28;20474;-75
2023/06/19 11:57:33;;;;;;;14.25;10.80;;;;;;;;;;5032058;28;20048;-75
2023/06/19 11:59:59;;;;;;;20.00;12.00;;;;;;;;;;5030589;28;20128;-76
2023/06/19 12:02:27;;;;;;;12.93;9.88;;;24.20;99.90;;;;;;5030484;28;20116;-76
2023/06/19 12:04:53;;;;;;;12.88;10.10;;;;;;;;;;5020369;28;20349;-75
2023/06/19 12:07:19;;;;;;;13.18;8.20;;;;;;;;;;5018127;28;20483;-75
2023/06/19 12:09:46;;;;;;;13.73;8.65;;;;;;;;;;5032053;28;20120;-76
2023/06/19 12:12:11;;;;;;;14.02;8.38;;;;;;;;;;5030580;28;20053;-76
2023/06/19 12:14:39;;;;;;;9.65;8.40;;;;;;;;;;5028999;28;20613;-75
2023/06/19 12:17:05;;;;;;;19.17;10.10;;;;;;;;;;5029890;28;20029;-75
2023/06/19 12:19:31;;;;;;;13.60;9.32;;;;;;;;;;5030714;28;20044;-75
2023/06/19 12:21:58;;;;;;;12.40;8.68;;;;;;;;;;5031512;28;20033;-75
2023/06/19 12:24:24;;;;;;;14.35;9.43;;;;;;;;;;5030210;28;20129;-74
2023/06/19 12:26:50;;;;;;;16.95;9.35;;;;;;;;;;5030869;28;20562;-75
2023/06/19 12:29:17;;;;;;;13.57;7.75;;;;;;;;;;5031727;28;20099;-75
2023/06/19 12:31:44;;;;;;;10.77;7.93;;;;;;;;;;5028629;28;20034;-75
2023/06/19 12:34:10;;;;;;;13.38;8.27;;;;;;;;;;5029381;28;20100;-76
2023/06/19 12:36:37;;;;;;;12.77;9.40;;;25.70;99.90;;;;;;5061752;28;20030;-75
2023/06/19 12:39:06;;;;;;;12.88;9.50;;;;;;;;;;5030760;28;20092;-75
2023/06/19 12:41:32;;;;;;;11.48;9.75;;;;;;;;;;5028155;28;20053;-76
2023/06/19 12:43:58;;;;;;;10.93;8.63;;;;;;;;;;5063330;28;20636;-76
2023/06/19 12:46:24;;;;;;;11.20;7.60;;;;;;;;;;5065368;28;20414;-76
2023/06/19 12:48:50;;;;;;;10.38;8.45;;;;;;;;;;5019183;28;20377;-76
2023/06/19 12:51:17;;;;;;;9.30;8.10;;;;;;;;;;5028435;28;20036;-76
2023/06/19 12:53:44;;;;;;;12.65;8.00;;;;;;;;;;5009081;28;20103;-75
2023/06/19 12:56:10;;;;;;;16.05;8.93;;;;;;;;;;5019733;28;20414;-75
2023/06/19 12:58:36;;;;;;;10.45;8.82;;;;;;;;;;5031193;28;20526;-75
2023/06/19 13:01:02;;;;;;;10.30;8.23;;;;;;;;;;5025134;28;20041;-75
2023/06/19 13:03:28;;;;;;;9.40;8.30;;;;;;;;;;5030500;28;20495;-76
2023/06/19 13:05:54;;;;;;;9.02;8.10;;;;;;;;;;5029402;28;20084;-75
2023/06/19 13:08:20;;;;;;;9.98;7.45;;;;;;;;;;5018872;28;20048;-77
2023/06/19 13:10:46;;;;;;;80.75;22.75;;;;;;;;;;5018613;28;20030;-73
2023/06/19 13:13:13;;;;;;;31.88;11.68;;;;;;;;;;5026481;28;20121;-72
2023/06/19 13:15:39;;;;;;;15.68;9.10;;;;;;;;;;5019114;28;20325;-72
2023/06/19 13:18:05;;;;;;;10.25;7.45;;;;;;;;;;5033518;28;20383;-72
2023/06/19 13:20:31;;;;;;;9.15;8.10;;;;;;;;;;5021881;28;20104;-72
2023/06/19 13:22:57;;;;;;;9.23;6.85;;;26.30;99.90;;;;;;5017813;28;20049;-72
2023/06/19 13:25:23;;;;;;;9.52;7.63;;;;;;;;;;5028031;28;20087;-71
2023/06/19 13:27:49;;;;;;;22.23;8.73;;;;;;;;;;5016253;28;20422;-71
2023/06/19 13:30:16;;;;;;;32.95;9.57;;;;;;;;;;5053651;28;20041;-71
2023/06/19 13:32:42;;;;;;;15.10;8.52;;;;;;;;;;5027627;28;20037;-71
2023/06/19 13:35:08;;;;;;;11.35;8.38;;;26.50;99.90;;;;;;5013697;28;20033;-72
2023/06/19 13:37:41;;;;;;;11.13;7.93;;;;;;;;;;5015112;28;20483;-71
2023/06/19 13:40:07;;;;;;;10.18;8.63;;;;;;;;;;5014945;28;20494;-81
2023/06/19 13:42:38;;;;;;;8.85;7.95;;;;;;;;;;5042295;28;20052;-77
2023/06/19 13:45:04;;;;;;;12.48;8.27;;;;;;;;;;5024999;28;20025;-73
2023/06/19 13:47:30;;;;;;;8.70;7.53;;;26.60;99.90;;;;;;5027285;28;20037;-74
2023/06/19 13:49:58;;;;;;;15.75;8.75;;;;;;;;;;5015144;28;20037;-73
2023/06/19 13:52:24;;;;;;;10.23;7.28;;;;;;;;;;5029427;28;20578;-74
2023/06/19 13:54:50;;;;;;;9.23;6.20;;;;;;;;;;5026719;28;20117;-73
2023/06/19 13:57:16;;;;;;;5.50;4.70;;;;;;;;;;5025995;28;20100;-74
2023/06/19 13:59:43;;;;;;;8.38;5.43;;;;;;;;;;5029227;28;20471;-72
2023/06/19 14:02:10;;;;;;;9.05;5.80;;;;;;;;;;5025685;28;20034;-73
2023/06/19 14:04:36;;;;;;;9.00;6.18;;;;;;;;;;5030462;28;20147;-72
2023/06/19 14:07:02;;;;;;;9.05;6.28;;;;;;;;;;5032081;28;20045;-73
2023/06/19 14:09:28;;;;;;;9.80;5.30;;;;;;;;;;5030416;28;20045;-71
2023/06/19 14:11:54;;;;;;;9.80;4.95;;;27.10;99.90;;;;;;5024930;28;20030;-74
2023/06/19 14:14:20;;;;;;;8.27;4.90;;;;;;;;;;5022863;28;20038;-76
2023/06/19 14:16:46;;;;;;;8.23;5.90;;;;;;;;;;5032580;28;20030;-74
2023/06/19 14:19:12;;;;;;;9.88;5.28;;;;;;;;;;5024283;28;20049;-78
2023/06/19 14:21:38;;;;;;;17.60;5.10;;;;;;;;;;5020558;28;20491;-77
2023/06/19 14:24:04;;;;;;;6.72;4.55;;;27.00;99.90;;;;;;5028677;28;20058;-79